< < Back
Terminal Aerodrome Forecast


Current Version              Previous Versions:   1  2  3  4  5  6  7  8  9  

Terminal Aerodrome Forecast

100
FTUS42 KILM 241700
TAFILM
TAF
KILM 241720Z 2418/2518 18012G19KT 3SM -SHRA BR OVC006
     FM242100 19011G20KT 2SM -SHRA BR OVC004
     FM250300 20012KT 4SM -RA BR SCT008 OVC015
     FM250900 26013G20KT 6SM -RA BKN007
     FM251300 29010KT P6SM BKN100=

Latest METAR

772
SAUS70 KWBC 250700 RRF
MTRILM
METAR KILM 250653Z 22008KT 10SM OVC080 18/17 A2977 RMK AO2 RAE48 SLP081
P0000 T01830172


USA.gov is the U.S. government's official web portal to all federal, state and local government web resources and services.